Time;durP1;ratioP1;P1;durP2;ratioP2;P2;SDS_P1;SDS_P2;PMS_P1;PMS_P2;Temp;Humidity;BMP_temperature;BMP_pressure;BME280_temperature;BME280_humidity;BME280_pressure;Samples;Min_cycle;Max_cycle;Signal;HPM_P1;HPM_P2
2024/01/14 00:02:06;;;;;;;6.80;3.73;;;3.40;99.90;;;;;;5052956;28;20406;-77
2024/01/14 00:04:32;;;;;;;9.60;4.60;;;3.50;99.90;;;;;;5051959;28;20247;-78
2024/01/14 00:06:57;;;;;;;10.47;4.07;;;3.50;99.90;;;;;;5052660;28;20198;-71
2024/01/14 00:09:23;;;;;;;12.23;3.40;;;3.50;99.90;;;;;;5052887;28;20202;-72
2024/01/14 00:11:49;;;;;;;8.57;3.53;;;3.50;99.90;;;;;;5052706;28;20625;-71
2024/01/14 00:14:15;;;;;;;12.90;5.00;;;3.50;99.90;;;;;;5052677;28;20267;-72
2024/01/14 00:16:41;;;;;;;16.07;4.90;;;3.60;99.90;;;;;;5051333;28;20493;-76
2024/01/14 00:19:07;;;;;;;9.47;3.60;;;3.60;99.90;;;;;;5052514;28;20191;-77
2024/01/14 00:21:33;;;;;;;17.90;4.27;;;3.60;99.90;;;;;;5052727;28;20198;-76
2024/01/14 00:23:58;;;;;;;8.50;3.23;;;3.60;99.90;;;;;;5052779;28;20485;-75
2024/01/14 00:26:27;;;;;;;5.97;2.80;;;3.60;99.90;;;;;;5051390;28;20413;-74
2024/01/14 00:28:54;;;;;;;39.33;4.67;;;3.60;99.90;;;;;;5052630;28;20183;-77
2024/01/14 00:31:20;;;;;;;7.37;2.40;;;3.60;99.90;;;;;;5052479;28;20587;-75
2024/01/14 00:33:45;;;;;;;15.60;2.83;;;3.60;99.90;;;;;;5052007;28;20405;-71
2024/01/14 00:36:11;;;;;;;6.20;2.73;;;3.50;99.90;;;;;;5055320;28;20400;-76
2024/01/14 00:38:37;;;;;;;5.83;2.60;;;3.60;99.90;;;;;;5055286;28;20313;-77
2024/01/14 00:41:04;;;;;;;7.77;3.23;;;3.60;99.90;;;;;;5056481;28;20182;-71
2024/01/14 00:43:30;;;;;;;6.27;3.30;;;3.50;99.90;;;;;;5056572;28;20512;-70
2024/01/14 00:45:55;;;;;;;9.83;2.97;;;3.50;99.90;;;;;;5054391;28;20498;-71
2024/01/14 00:48:21;;;;;;;7.47;3.00;;;3.40;99.90;;;;;;5056055;28;20290;-71
2024/01/14 00:50:47;;;;;;;5.50;2.70;;;3.30;99.90;;;;;;5056192;28;20414;-70
2024/01/14 00:53:13;;;;;;;8.40;2.50;;;3.30;99.90;;;;;;5055857;28;21078;-77
2024/01/14 00:55:39;;;;;;;11.87;2.87;;;3.20;99.90;;;;;;5055417;28;20402;-76
2024/01/14 00:58:05;;;;;;;6.30;2.63;;;3.20;99.90;;;;;;5056236;28;20475;-76
2024/01/14 01:00:31;;;;;;;4.20;2.70;;;3.20;99.90;;;;;;5056184;28;20163;-75
2024/01/14 01:02:56;;;;;;;9.60;2.80;;;3.20;99.90;;;;;;5056134;28;20748;-77
2024/01/14 01:05:22;;;;;;;12.00;2.70;;;3.10;99.90;;;;;;5055154;28;20636;-71
2024/01/14 01:07:48;;;;;;;2.60;2.40;;;3.00;99.90;;;;;;5056085;28;20206;-72
2024/01/14 01:10:14;;;;;;;6.27;2.43;;;3.10;99.90;;;;;;5055436;28;20232;-76
2024/01/14 01:12:39;;;;;;;3.43;2.27;;;3.00;99.90;;;;;;5055992;28;20249;-71
2024/01/14 01:15:06;;;;;;;8.60;3.03;;;3.00;99.90;;;;;;5054967;28;20289;-70
2024/01/14 01:17:32;;;;;;;5.10;2.20;;;2.90;99.90;;;;;;5055754;28;20221;-73
2024/01/14 01:20:01;;;;;;;5.17;2.03;;;3.00;99.90;;;;;;5055912;28;20425;-71
2024/01/14 01:22:27;;;;;;;3.57;2.80;;;2.90;99.90;;;;;;5055853;28;20409;-75
2024/01/14 01:24:53;;;;;;;4.13;2.33;;;2.80;99.90;;;;;;5054951;28;20921;-77
2024/01/14 01:27:19;;;;;;;5.50;2.73;;;2.80;99.90;;;;;;5055074;28;20410;-77
2024/01/14 01:29:45;;;;;;;3.87;2.77;;;2.80;99.90;;;;;;5055442;28;20178;-72
2024/01/14 01:32:11;;;;;;;3.63;2.53;;;2.80;99.90;;;;;;5055665;28;20457;-77
2024/01/14 01:34:37;;;;;;;4.37;2.47;;;2.70;99.90;;;;;;5054756;28;20531;-72
2024/01/14 01:37:04;;;;;;;6.63;3.23;;;2.70;99.90;;;;;;5055559;28;20401;-72
2024/01/14 01:39:30;;;;;;;3.87;2.70;;;2.70;99.90;;;;;;5055364;28;20426;-77
2024/01/14 01:41:56;;;;;;;8.27;2.97;;;2.70;99.90;;;;;;5055452;28;20398;-78
2024/01/14 01:44:22;;;;;;;2.83;2.63;;;2.70;99.90;;;;;;5055272;28;20406;-73
2024/01/14 01:46:49;;;;;;;7.30;2.53;;;2.70;99.90;;;;;;5052437;28;20235;-74
2024/01/14 01:49:15;;;;;;;10.37;3.10;;;2.70;99.90;;;;;;5054945;28;20436;-71
2024/01/14 01:51:47;;;;;;;8.97;2.17;;;2.70;99.90;;;;;;5055115;28;20445;-72
2024/01/14 01:54:15;;;;;;;6.27;2.67;;;2.70;99.90;;;;;;5054001;28;20175;-76
2024/01/14 01:56:41;;;;;;;3.33;2.30;;;2.60;99.90;;;;;;5054343;28;20405;-77
2024/01/14 01:59:08;;;;;;;3.50;2.20;;;2.60;99.90;;;;;;5054917;28;20479;-71
2024/01/14 02:01:34;;;;;;;6.30;2.40;;;2.60;99.90;;;;;;5054023;28;20464;-74
2024/01/14 02:04:01;;;;;;;7.27;2.97;;;2.60;99.90;;;;;;5054431;28;20429;-76
2024/01/14 02:06:28;;;;;;;6.50;2.73;;;2.50;99.90;;;;;;5054023;28;20426;-72
2024/01/14 02:08:54;;;;;;;10.17;3.10;;;2.50;99.90;;;;;;5054924;28;20457;-75
2024/01/14 02:11:20;;;;;;;4.40;2.90;;;2.50;99.90;;;;;;5054886;28;20414;-72
2024/01/14 02:13:46;;;;;;;10.10;3.40;;;2.50;99.90;;;;;;5054779;28;20497;-76
2024/01/14 02:16:13;;;;;;;12.73;3.20;;;2.50;99.90;;;;;;5053993;28;20910;-76
2024/01/14 02:18:39;;;;;;;10.63;4.03;;;2.50;99.90;;;;;;5054752;28;20449;-71
2024/01/14 02:21:07;;;;;;;9.17;3.50;;;2.50;99.90;;;;;;5054113;28;20456;-72
2024/01/14 02:23:37;;;;;;;10.90;3.33;;;2.50;99.90;;;;;;5054727;28;20178;-72
2024/01/14 02:26:03;;;;;;;13.60;3.57;;;2.50;99.90;;;;;;5053634;28;20401;-71
2024/01/14 02:28:30;;;;;;;8.37;3.00;;;2.50;99.90;;;;;;5054469;28;20467;-76
2024/01/14 02:30:56;;;;;;;8.03;2.60;;;2.50;99.90;;;;;;5054524;28;20397;-77
2024/01/14 02:33:23;;;;;;;9.90;3.20;;;2.60;99.90;;;;;;5054508;28;20969;-77
2024/01/14 02:35:49;;;;;;;12.33;2.97;;;2.60;99.90;;;;;;5053531;28;20404;-74
2024/01/14 02:38:15;;;;;;;5.03;2.93;;;2.60;99.90;;;;;;5052845;28;20437;-71
2024/01/14 02:40:41;;;;;;;2.10;2.00;;;2.50;99.90;;;;;;5052723;28;20440;-71
2024/01/14 02:43:06;;;;;;;9.60;3.47;;;2.40;99.90;;;;;;5054291;28;20175;-71
2024/01/14 02:45:32;;;;;;;7.33;2.63;;;2.40;99.90;;;;;;5053469;28;20255;-74
2024/01/14 02:47:58;;;;;;;12.30;3.20;;;2.40;99.90;;;;;;5054131;28;20194;-71
2024/01/14 02:50:24;;;;;;;5.33;2.50;;;2.50;99.90;;;;;;5054082;28;20405;-77
2024/01/14 02:52:49;;;;;;;6.23;2.47;;;2.40;99.90;;;;;;5054129;28;20187;-71
2024/01/14 02:55:15;;;;;;;5.90;2.63;;;2.50;99.90;;;;;;5053059;28;20170;-71
2024/01/14 02:57:42;;;;;;;13.30;3.30;;;2.40;99.90;;;;;;5052828;28;20575;-74
2024/01/14 03:00:09;;;;;;;10.43;2.40;;;2.40;99.90;;;;;;5053618;28;20634;-77
2024/01/14 03:02:36;;;;;;;5.90;2.67;;;2.40;99.90;;;;;;5053873;28;20401;-71
2024/01/14 03:05:02;;;;;;;13.83;4.00;;;2.40;99.90;;;;;;5052999;28;20405;-77
2024/01/14 03:07:28;;;;;;;10.93;3.07;;;2.30;99.90;;;;;;5052432;28;20468;-71
2024/01/14 03:09:54;;;;;;;8.60;2.90;;;2.30;99.90;;;;;;5052719;28;20492;-75
2024/01/14 03:12:19;;;;;;;3.93;2.80;;;2.20;99.90;;;;;;5053477;28;20202;-73
2024/01/14 03:14:45;;;;;;;5.93;3.13;;;2.20;99.90;;;;;;5052446;28;20159;-71
2024/01/14 03:17:11;;;;;;;8.37;3.20;;;2.30;99.90;;;;;;5053722;28;20662;-75
2024/01/14 03:19:36;;;;;;;3.20;2.77;;;2.30;99.90;;;;;;5053487;28;20678;-74
2024/01/14 03:22:02;;;;;;;6.70;2.97;;;2.30;99.90;;;;;;5053714;28;20171;-73
2024/01/14 03:24:28;;;;;;;10.80;2.60;;;2.30;99.90;;;;;;5053176;28;20174;-70
2024/01/14 03:26:53;;;;;;;6.07;2.33;;;2.30;99.90;;;;;;5052856;28;20189;-71
2024/01/14 03:29:19;;;;;;;6.53;2.80;;;2.30;99.90;;;;;;5053180;28;20762;-72
2024/01/14 03:31:45;;;;;;;6.73;2.57;;;2.30;99.90;;;;;;5052989;28;20270;-72
2024/01/14 03:34:10;;;;;;;5.37;3.13;;;2.30;99.90;;;;;;5053499;28;20185;-74
2024/01/14 03:36:36;;;;;;;14.30;2.60;;;2.30;99.90;;;;;;5052403;28;20222;-73
2024/01/14 03:39:03;;;;;;;7.23;3.50;;;2.30;99.90;;;;;;5053013;28;20183;-78
2024/01/14 03:41:30;;;;;;;9.67;3.17;;;2.20;99.90;;;;;;5053408;28;20516;-70
2024/01/14 03:43:56;;;;;;;6.63;3.27;;;2.20;99.90;;;;;;5053174;28;20404;-71
2024/01/14 03:46:22;;;;;;;4.57;2.40;;;2.20;99.90;;;;;;5052213;28;20479;-78
2024/01/14 03:48:48;;;;;;;7.27;3.03;;;2.20;99.90;;;;;;5051200;28;20930;-78
2024/01/14 03:51:13;;;;;;;12.37;3.07;;;2.20;99.90;;;;;;5053115;28;20404;-74
2024/01/14 03:53:39;;;;;;;6.30;2.87;;;2.20;99.90;;;;;;5051620;28;20286;-77
2024/01/14 03:56:05;;;;;;;7.10;2.80;;;2.20;99.90;;;;;;5052218;28;20662;-72
2024/01/14 03:58:31;;;;;;;8.83;3.07;;;2.20;99.90;;;;;;5052861;28;20187;-73
2024/01/14 04:00:56;;;;;;;9.17;2.70;;;2.20;99.90;;;;;;5052917;28;20171;-72
2024/01/14 04:03:22;;;;;;;6.37;3.20;;;2.20;99.90;;;;;;5053110;28;20178;-76
2024/01/14 04:05:48;;;;;;;13.50;4.10;;;2.20;99.90;;;;;;5050500;28;20182;-77
2024/01/14 04:08:14;;;;;;;7.80;2.70;;;2.20;99.90;;;;;;5052257;28;20521;-71
2024/01/14 04:10:39;;;;;;;11.77;2.87;;;2.20;99.90;;;;;;5052473;28;20635;-72
2024/01/14 04:13:05;;;;;;;7.43;2.80;;;2.20;99.90;;;;;;5052682;28;20202;-72
2024/01/14 04:15:31;;;;;;;5.97;2.63;;;2.10;99.90;;;;;;5052003;28;20171;-77
2024/01/14 04:17:56;;;;;;;4.80;2.60;;;2.10;99.90;;;;;;5052723;28;20190;-71
2024/01/14 04:20:23;;;;;;;6.77;2.63;;;2.10;99.90;;;;;;5052772;28;20273;-75
2024/01/14 04:22:48;;;;;;;5.07;2.57;;;2.10;99.90;;;;;;5052308;28;20165;-71
2024/01/14 04:25:14;;;;;;;9.03;3.70;;;2.10;99.90;;;;;;5051523;28;20401;-72
2024/01/14 04:27:40;;;;;;;8.03;3.03;;;2.10;99.90;;;;;;5051706;28;20261;-74
2024/01/14 04:30:06;;;;;;;7.37;3.20;;;2.10;99.90;;;;;;5051460;28;20182;-76
2024/01/14 04:32:32;;;;;;;12.83;3.00;;;2.10;99.90;;;;;;5052528;28;20220;-71
2024/01/14 04:34:58;;;;;;;6.83;3.40;;;2.10;99.90;;;;;;5051595;28;20408;-73
2024/01/14 04:37:23;;;;;;;3.93;2.60;;;2.20;99.90;;;;;;5052497;28;20408;-71
2024/01/14 04:39:49;;;;;;;11.00;3.33;;;2.10;99.90;;;;;;5052599;28;20167;-77
2024/01/14 04:42:15;;;;;;;5.20;2.90;;;2.10;99.90;;;;;;5052549;28;20214;-74
2024/01/14 04:44:40;;;;;;;12.13;3.10;;;2.10;99.90;;;;;;5051113;28;20198;-72
2024/01/14 04:47:06;;;;;;;15.20;3.40;;;2.10;99.90;;;;;;5052395;28;20532;-70
2024/01/14 04:49:32;;;;;;;7.23;3.73;;;2.10;99.90;;;;;;5052487;28;20724;-72
2024/01/14 04:51:58;;;;;;;5.83;3.17;;;2.10;99.90;;;;;;5052298;28;20532;-71
2024/01/14 04:54:24;;;;;;;8.10;3.57;;;2.20;99.90;;;;;;5052253;28;20632;-77
2024/01/14 04:56:50;;;;;;;3.20;2.33;;;2.20;99.90;;;;;;5050579;28;20167;-77
2024/01/14 04:59:16;;;;;;;5.00;3.43;;;2.20;99.90;;;;;;5051864;28;20182;-71
2024/01/14 05:01:42;;;;;;;11.80;3.60;;;2.20;99.90;;;;;;5052062;28;20764;-77
2024/01/14 05:04:07;;;;;;;11.53;2.80;;;2.20;99.90;;;;;;5052466;28;20162;-76
2024/01/14 05:06:34;;;;;;;6.50;2.77;;;2.10;99.90;;;;;;5051337;28;20577;-77
2024/01/14 05:09:00;;;;;;;5.30;2.63;;;2.20;99.90;;;;;;5052197;28;20509;-76
2024/01/14 05:11:26;;;;;;;5.07;2.60;;;2.20;99.90;;;;;;5052294;28;20431;-77
2024/01/14 05:13:51;;;;;;;7.53;2.57;;;2.20;99.90;;;;;;5052227;28;20671;-77
2024/01/14 05:16:17;;;;;;;9.37;2.80;;;2.20;99.90;;;;;;5051319;28;20167;-71
2024/01/14 05:18:43;;;;;;;13.93;2.63;;;2.30;99.90;;;;;;5051684;28;20201;-76
2024/01/14 05:21:15;;;;;;;7.67;3.23;;;2.30;99.90;;;;;;5052220;28;20155;-73
2024/01/14 05:23:40;;;;;;;5.57;3.30;;;2.40;99.90;;;;;;5055832;28;20159;-71
2024/01/14 05:26:06;;;;;;;7.43;3.10;;;2.40;99.90;;;;;;5054966;28;20397;-76
2024/01/14 05:28:32;;;;;;;4.20;2.17;;;2.50;99.90;;;;;;5055695;28;20229;-70
2024/01/14 05:30:57;;;;;;;9.00;2.83;;;2.50;99.90;;;;;;5054681;28;20171;-70
2024/01/14 05:33:23;;;;;;;6.37;2.80;;;2.50;99.90;;;;;;5055532;28;20208;-74
2024/01/14 05:35:49;;;;;;;4.70;2.40;;;2.50;99.90;;;;;;5053353;28;20531;-77
2024/01/14 05:38:14;;;;;;;14.07;3.50;;;2.50;99.90;;;;;;5054918;28;20190;-77
2024/01/14 05:40:40;;;;;;;6.67;2.60;;;2.60;99.90;;;;;;5055591;28;20304;-76
2024/01/14 05:43:06;;;;;;;8.60;3.03;;;2.60;99.90;;;;;;5055459;28;20696;-77
2024/01/14 05:45:31;;;;;;;4.97;2.63;;;2.60;99.90;;;;;;5054495;28;20175;-72
2024/01/14 05:47:57;;;;;;;4.07;3.23;;;2.70;99.90;;;;;;5055303;28;20245;-77
2024/01/14 05:50:23;;;;;;;9.60;3.63;;;2.70;99.90;;;;;;5054002;28;20640;-73
2024/01/14 05:52:48;;;;;;;6.00;3.40;;;2.90;99.90;;;;;;5055248;28;20230;-77
2024/01/14 05:55:14;;;;;;;10.57;4.23;;;2.80;99.90;;;;;;5053762;28;20170;-71
2024/01/14 05:57:40;;;;;;;6.47;2.33;;;2.80;99.90;;;;;;5055011;28;20191;-72
2024/01/14 06:00:06;;;;;;;6.77;2.77;;;2.80;99.90;;;;;;5055246;28;20206;-75
2024/01/14 06:02:32;;;;;;;6.00;3.40;;;2.90;99.90;;;;;;5055043;28;20250;-75
2024/01/14 06:04:58;;;;;;;7.33;2.70;;;2.90;99.90;;;;;;5054150;28;20488;-70
2024/01/14 06:07:23;;;;;;;4.10;2.60;;;2.90;99.90;;;;;;5053689;28;20194;-71
2024/01/14 06:09:49;;;;;;;6.30;2.87;;;2.90;99.90;;;;;;5054863;28;20176;-77
2024/01/14 06:12:15;;;;;;;8.30;3.53;;;2.90;99.90;;;;;;5053214;28;20191;-75
2024/01/14 06:14:41;;;;;;;5.73;2.87;;;2.90;99.90;;;;;;5054056;28;20163;-76
2024/01/14 06:17:08;;;;;;;6.00;2.37;;;2.90;99.90;;;;;;5054672;28;20770;-75
2024/01/14 06:19:34;;;;;;;9.93;3.40;;;2.90;99.90;;;;;;5054714;28;20183;-72
2024/01/14 06:22:00;;;;;;;16.00;2.90;;;3.00;99.90;;;;;;5054474;28;20466;-71
2024/01/14 06:24:26;;;;;;;6.23;2.50;;;3.00;99.90;;;;;;5054516;28;20410;-78
2024/01/14 06:26:52;;;;;;;9.83;4.17;;;3.00;99.90;;;;;;5053960;28;20539;-72
2024/01/14 06:29:18;;;;;;;4.63;3.20;;;3.00;99.90;;;;;;5054541;28;20428;-73
2024/01/14 06:31:45;;;;;;;10.30;4.10;;;2.90;99.90;;;;;;5053730;28;20397;-78
2024/01/14 06:34:11;;;;;;;11.77;3.23;;;2.90;99.90;;;;;;5054342;28;20398;-74
2024/01/14 06:36:37;;;;;;;14.10;3.20;;;2.90;99.90;;;;;;5053601;28;20958;-70
2024/01/14 06:39:05;;;;;;;5.30;2.70;;;2.90;99.90;;;;;;5054104;28;20436;-70
2024/01/14 06:41:31;;;;;;;13.27;3.60;;;2.90;99.90;;;;;;5054473;28;20484;-71
2024/01/14 06:43:57;;;;;;;13.43;3.50;;;2.80;99.90;;;;;;5054215;28;20408;-78
2024/01/14 06:46:23;;;;;;;10.07;3.27;;;2.80;99.90;;;;;;5053184;28;20481;-73
2024/01/14 06:48:48;;;;;;;8.73;3.63;;;2.90;99.90;;;;;;5054295;28;20195;-77
2024/01/14 06:51:15;;;;;;;12.73;3.33;;;3.00;99.90;;;;;;5053455;28;20170;-74
2024/01/14 06:53:41;;;;;;;8.80;3.30;;;3.00;99.90;;;;;;5053751;28;20458;-70
2024/01/14 06:56:08;;;;;;;3.80;3.07;;;3.00;99.90;;;;;;5053168;28;20242;-75
2024/01/14 06:58:34;;;;;;;18.03;3.40;;;2.90;99.90;;;;;;5053955;28;20422;-71
2024/01/14 07:01:00;;;;;;;10.80;3.73;;;2.90;99.90;;;;;;5052835;28;20463;-77
2024/01/14 07:03:25;;;;;;;14.77;3.70;;;2.80;99.90;;;;;;5054045;28;20583;-70
2024/01/14 07:05:51;;;;;;;8.77;3.30;;;2.80;99.90;;;;;;5052717;28;20229;-76
2024/01/14 07:08:17;;;;;;;13.10;2.40;;;2.80;99.90;;;;;;5053131;28;20214;-73
2024/01/14 07:10:42;;;;;;;11.23;2.30;;;2.80;99.90;;;;;;5053873;28;20709;-76
2024/01/14 07:13:08;;;;;;;13.13;3.43;;;2.70;99.90;;;;;;5052448;28;20268;-70
2024/01/14 07:15:34;;;;;;;13.60;4.23;;;2.80;99.90;;;;;;5052764;28;20167;-76
2024/01/14 07:18:02;;;;;;;10.13;3.13;;;2.80;99.90;;;;;;5052400;28;20191;-77
2024/01/14 07:20:27;;;;;;;4.70;2.90;;;2.80;99.90;;;;;;5053574;28;20190;-71
2024/01/14 07:22:53;;;;;;;9.43;2.53;;;2.90;99.90;;;;;;5053609;28;20834;-71
2024/01/14 07:25:19;;;;;;;15.53;2.50;;;2.90;99.90;;;;;;5052614;28;20171;-71
2024/01/14 07:27:45;;;;;;;11.30;3.13;;;2.90;99.90;;;;;;5052913;28;20186;-77
2024/01/14 07:30:11;;;;;;;15.80;2.73;;;2.90;99.90;;;;;;5052131;28;20168;-73
2024/01/14 07:32:36;;;;;;;20.87;3.83;;;2.80;99.90;;;;;;5053313;28;20195;-70
2024/01/14 07:35:03;;;;;;;7.70;3.50;;;2.90;99.90;;;;;;5051211;28;20425;-70
2024/01/14 07:37:33;;;;;;;3.17;2.20;;;2.80;99.90;;;;;;5053313;28;20563;-75
2024/01/14 07:39:59;;;;;;;10.10;2.93;;;2.80;99.90;;;;;;5053400;28;20408;-72
2024/01/14 07:42:25;;;;;;;8.50;3.53;;;2.70;99.90;;;;;;5053119;28;20488;-71
2024/01/14 07:44:51;;;;;;;10.50;3.33;;;2.80;99.90;;;;;;5051287;28;20464;-71
2024/01/14 07:47:17;;;;;;;7.07;3.53;;;2.80;99.90;;;;;;5052878;28;20405;-70
2024/01/14 07:49:48;;;;;;;5.80;3.50;;;2.80;99.90;;;;;;5053112;28;20422;-71
2024/01/14 07:52:15;;;;;;;10.60;4.63;;;2.80;99.90;;;;;;5053078;28;20217;-75
2024/01/14 07:54:40;;;;;;;9.53;3.17;;;2.70;99.90;;;;;;5050857;28;20417;-76
2024/01/14 07:57:06;;;;;;;5.77;2.50;;;2.80;99.90;;;;;;5052983;28;20405;-76
2024/01/14 07:59:32;;;;;;;9.83;3.13;;;2.80;99.90;;;;;;5052890;28;20229;-73
2024/01/14 08:01:57;;;;;;;6.80;3.37;;;2.80;99.90;;;;;;5052699;28;20175;-70
2024/01/14 08:04:23;;;;;;;10.97;3.37;;;3.00;99.90;;;;;;5052163;28;20289;-76
2024/01/14 08:06:49;;;;;;;8.43;2.90;;;2.90;99.90;;;;;;5051160;28;20195;-71
2024/01/14 08:09:14;;;;;;;7.10;2.93;;;2.90;99.90;;;;;;5051751;28;20195;-70
2024/01/14 08:11:40;;;;;;;5.93;3.07;;;2.90;99.90;;;;;;5052729;28;20590;-78
2024/01/14 08:14:06;;;;;;;10.73;3.80;;;3.00;99.90;;;;;;5052843;28;20155;-75
2024/01/14 08:16:31;;;;;;;8.53;2.73;;;3.00;99.90;;;;;;5050888;28;20178;-77
2024/01/14 08:18:57;;;;;;;7.47;3.10;;;3.00;99.90;;;;;;5052598;28;20262;-75
2024/01/14 08:21:23;;;;;;;5.20;2.70;;;3.00;99.90;;;;;;5052422;28;20175;-76
2024/01/14 08:23:48;;;;;;;12.33;3.83;;;3.10;99.90;;;;;;5051666;28;20217;-74
2024/01/14 08:26:14;;;;;;;9.23;3.80;;;3.10;99.90;;;;;;5051860;28;20163;-71
2024/01/14 08:28:40;;;;;;;9.60;3.17;;;3.10;99.90;;;;;;5052470;28;20199;-71
2024/01/14 08:31:05;;;;;;;2.53;2.30;;;3.20;99.90;;;;;;5051582;28;20175;-72
2024/01/14 08:33:31;;;;;;;12.73;3.77;;;3.20;99.90;;;;;;5052667;28;20195;-72
2024/01/14 08:35:57;;;;;;;12.27;3.43;;;3.20;99.90;;;;;;5051817;28;20170;-75
2024/01/14 08:38:25;;;;;;;5.93;3.00;;;3.20;99.90;;;;;;5052491;28;20708;-76
2024/01/14 08:40:54;;;;;;;11.73;4.20;;;3.30;99.90;;;;;;5052154;28;20400;-78
2024/01/14 08:43:20;;;;;;;7.60;3.70;;;3.30;99.90;;;;;;5052300;28;20441;-73
2024/01/14 08:45:45;;;;;;;4.20;3.30;;;3.30;99.90;;;;;;5050407;28;20445;-72
2024/01/14 08:48:13;;;;;;;9.63;3.20;;;3.40;99.90;;;;;;5052571;28;20187;-74
2024/01/14 08:50:38;;;;;;;8.87;2.60;;;3.40;99.90;;;;;;5052571;28;20202;-74
2024/01/14 08:53:04;;;;;;;10.87;2.77;;;3.40;99.90;;;;;;5053869;28;20471;-71
2024/01/14 08:55:31;;;;;;;6.53;3.03;;;3.50;99.90;;;;;;5051643;28;20160;-74
2024/01/14 08:57:57;;;;;;;11.73;3.23;;;3.50;99.90;;;;;;5055205;28;20421;-73
2024/01/14 09:00:22;;;;;;;9.80;2.47;;;3.50;99.90;;;;;;5055891;28;20553;-71
2024/01/14 09:02:48;;;;;;;9.33;2.30;;;3.50;99.90;;;;;;5056337;28;20229;-75
2024/01/14 09:05:15;;;;;;;13.03;3.40;;;3.60;99.90;;;;;;5055135;28;20187;-77
2024/01/14 09:07:40;;;;;;;11.27;2.53;;;3.70;99.90;;;;;;5056130;28;20187;-70
2024/01/14 09:10:07;;;;;;;6.27;2.77;;;3.80;99.90;;;;;;5056142;28;20405;-71
2024/01/14 09:12:33;;;;;;;6.23;3.30;;;3.80;99.90;;;;;;5055974;28;20226;-71
2024/01/14 09:14:58;;;;;;;4.97;3.60;;;3.90;99.90;;;;;;5055123;28;20789;-76
2024/01/14 09:17:24;;;;;;;8.70;3.17;;;3.90;99.90;;;;;;5055960;28;20676;-71
2024/01/14 09:19:50;;;;;;;12.03;3.73;;;3.90;99.90;;;;;;5055349;28;20194;-78
2024/01/14 09:22:16;;;;;;;3.40;3.20;;;3.90;99.90;;;;;;5055791;28;20170;-70
2024/01/14 09:24:45;;;;;;;6.40;3.10;;;4.00;98.50;;;;;;5054980;28;20461;-72
2024/01/14 09:27:11;;;;;;;9.30;3.40;;;4.00;92.40;;;;;;5055722;28;20193;-78
2024/01/14 09:29:37;;;;;;;3.13;2.90;;;4.10;86.50;;;;;;5055625;28;20427;-72
2024/01/14 09:32:03;;;;;;;8.90;2.40;;;4.10;76.70;;;;;;5055697;28;20447;-72
2024/01/14 09:34:28;;;;;;;11.73;3.70;;;4.10;60.60;;;;;;5055464;28;20480;-78
2024/01/14 09:36:54;;;;;;;3.87;2.53;;;4.20;28.00;;;;;;5054659;28;20173;-76
2024/01/14 09:39:21;;;;;;;11.03;3.20;;;4.20;2.50;;;;;;5055022;28;20731;-72
2024/01/14 09:42:07;;;;;;;10.50;2.70;;;4.20;1.00;;;;;;5055483;28;20165;-76
2024/01/14 09:44:33;;;;;;;7.17;3.27;;;4.20;1.00;;;;;;5054837;28;20481;-73
2024/01/14 09:47:00;;;;;;;10.30;4.17;;;4.20;1.00;;;;;;5055433;28;20899;-77
2024/01/14 09:49:26;;;;;;;7.10;4.40;;;4.20;1.00;;;;;;5055318;28;20545;-78
2024/01/14 09:51:53;;;;;;;4.40;2.73;;;4.10;1.00;;;;;;5054914;28;20561;-72
2024/01/14 09:54:19;;;;;;;5.70;2.73;;;4.20;1.00;;;;;;5054949;28;20166;-76
2024/01/14 09:56:46;;;;;;;7.83;2.50;;;4.20;1.00;;;;;;5054165;28;20397;-77
2024/01/14 09:59:16;;;;;;;6.40;3.17;;;4.10;1.00;;;;;;5055068;28;20184;-72
2024/01/14 10:01:42;;;;;;;11.77;3.63;;;4.10;1.00;;;;;;5055035;28;20396;-72
2024/01/14 10:04:08;;;;;;;7.73;2.83;;;4.00;1.00;;;;;;5055209;28;20402;-76
2024/01/14 10:06:35;;;;;;;5.20;3.27;;;3.90;1.00;;;;;;5053934;28;20441;-73
2024/01/14 10:09:01;;;;;;;7.33;3.13;;;3.90;1.00;;;;;;5054388;28;20238;-78
2024/01/14 10:11:27;;;;;;;4.80;2.77;;;4.00;1.00;;;;;;5053715;28;20422;-70
2024/01/14 10:13:52;;;;;;;4.60;2.67;;;4.00;1.00;;;;;;5054199;28;20269;-78
2024/01/14 10:16:18;;;;;;;7.73;4.07;;;4.10;1.00;;;;;;5053594;28;20679;-77
2024/01/14 10:18:44;;;;;;;11.10;3.37;;;4.20;1.00;;;;;;5054879;28;20195;-71
2024/01/14 10:21:11;;;;;;;6.53;3.17;;;4.30;1.00;;;;;;5054749;28;20173;-71
2024/01/14 10:23:39;;;;;;;7.23;2.90;;;4.30;1.00;;;;;;5054648;28;20433;-77
2024/01/14 10:26:05;;;;;;;4.93;2.37;;;4.40;1.00;;;;;;5053887;28;20419;-76
2024/01/14 10:28:40;;;;;;;3.93;2.37;;;4.50;1.00;;;;;;5054578;28;20424;-70
2024/01/14 10:31:09;;;;;;;3.60;2.60;;;4.60;1.00;;;;;;5054587;28;20826;-71
2024/01/14 10:33:35;;;;;;;12.83;2.60;;;4.50;1.00;;;;;;5052595;28;20459;-75
2024/01/14 10:36:06;;;;;;;11.77;3.17;;;4.60;1.00;;;;;;5053655;28;20486;-78
2024/01/14 10:38:32;;;;;;;6.77;2.97;;;4.60;1.00;;;;;;5054357;28;20425;-71
2024/01/14 10:40:57;;;;;;;9.57;3.33;;;4.70;1.00;;;;;;5053407;28;20804;-73
2024/01/14 10:43:26;;;;;;;13.57;3.40;;;4.70;1.00;;;;;;5053492;28;20269;-73
2024/01/14 10:45:52;;;;;;;7.77;4.17;;;4.80;1.00;;;;;;5053362;28;20163;-72
2024/01/14 10:48:26;;;;;;;7.63;2.80;;;4.70;1.00;;;;;;5054240;28;20416;-71
2024/01/14 10:51:01;;;;;;;9.17;3.03;;;4.80;1.00;;;;;;5053918;28;20420;-77
2024/01/14 10:53:46;;;;;;;11.27;3.47;;;4.80;1.00;;;;;;5053742;28;20480;-78
2024/01/14 10:56:16;;;;;;;10.30;2.57;;;4.70;1.00;;;;;;5053042;28;20761;-77
2024/01/14 10:58:42;;;;;;;10.87;3.40;;;4.70;1.00;;;;;;5053976;28;20419;-77
2024/01/14 11:01:12;;;;;;;6.60;2.80;;;4.70;1.00;;;;;;5053869;28;20401;-77
2024/01/14 11:03:38;;;;;;;6.63;2.57;;;4.80;1.00;;;;;;5054332;28;20167;-77
2024/01/14 11:06:05;;;;;;;9.97;2.50;;;4.80;1.00;;;;;;5053129;28;20447;-74
2024/01/14 11:08:32;;;;;;;4.10;2.80;;;4.90;1.00;;;;;;5052550;28;20436;-76
2024/01/14 11:10:59;;;;;;;7.67;2.97;;;5.00;1.00;;;;;;5053639;28;20407;-77
2024/01/14 11:13:33;;;;;;;6.63;2.47;;;4.90;1.00;;;;;;5054051;28;20462;-73
2024/01/14 11:16:21;;;;;;;8.83;2.50;;;4.80;1.00;;;;;;5053094;28;20406;-76
2024/01/14 11:18:59;;;;;;;10.57;2.67;;;4.80;1.00;;;;;;5053165;28;20873;-72
2024/01/14 11:21:33;;;;;;;5.07;2.07;;;4.70;1.00;;;;;;5053769;28;20462;-72
2024/01/14 11:23:59;;;;;;;7.47;2.90;;;4.70;1.00;;;;;;5053836;28;20880;-71
2024/01/14 11:26:26;;;;;;;5.07;2.60;;;4.70;1.00;;;;;;5052211;28;20407;-74
2024/01/14 11:28:57;;;;;;;14.07;2.20;;;4.70;1.00;;;;;;5053841;28;20421;-71
2024/01/14 11:32:01;;;;;;;5.77;2.53;;;4.70;1.00;;;;;;5053854;28;20494;-77
2024/01/14 11:34:47;;;;;;;5.60;2.10;;;4.80;1.00;;;;;;5053316;28;20821;-75
2024/01/14 11:37:39;;;;;;;7.07;2.90;;;4.80;1.00;;;;;;5053703;28;20449;-75
2024/01/14 11:40:08;;;;;;;5.70;2.57;;;4.90;1.00;;;;;;5053486;28;20398;-71
2024/01/14 11:42:34;;;;;;;10.43;2.70;;;4.90;1.00;;;;;;5053552;28;20910;-78
2024/01/14 11:45:00;;;;;;;4.67;2.67;;;5.10;1.00;;;;;;5052243;28;20403;-74
2024/01/14 11:47:45;;;;;;;3.80;1.90;;;5.20;1.00;;;;;;5053186;28;20459;-76
2024/01/14 11:50:14;;;;;;;7.73;2.70;;;5.20;1.00;;;;;;5053460;28;20479;-71
2024/01/14 11:52:47;;;;;;;4.60;2.27;;;4.90;1.00;;;;;;5053249;28;20455;-77
2024/01/14 11:55:14;;;;;;;9.73;2.27;;;4.80;1.00;;;;;;5052532;28;20446;-76
2024/01/14 11:57:41;;;;;;;3.60;2.60;;;4.90;1.00;;;;;;5053324;28;20410;-71
2024/01/14 12:00:08;;;;;;;5.13;2.60;;;4.90;1.00;;;;;;5052976;28;20412;-72
2024/01/14 12:02:36;;;;;;;8.43;2.90;;;5.10;1.00;;;;;;5052515;28;20401;-70
2024/01/14 12:05:35;;;;;;;6.27;2.50;;;5.20;1.00;;;;;;5051307;28;20409;-77
2024/01/14 12:08:00;;;;;;;8.47;2.20;;;5.50;1.00;;;;;;5030161;28;20965;-70
2024/01/14 12:10:28;;;;;;;2.77;2.07;;;5.50;99.90;;;;;;5052942;28;20424;-72
2024/01/14 12:12:57;;;;;;;7.03;2.00;;;5.30;99.90;;;;;;5053082;28;20459;-75
2024/01/14 12:15:23;;;;;;;4.43;2.60;;;5.20;99.90;;;;;;5052125;28;20396;-76
2024/01/14 12:17:57;;;;;;;4.03;2.40;;;5.10;99.90;;;;;;5052963;28;20428;-77
2024/01/14 12:20:24;;;;;;;5.00;2.63;;;5.10;99.90;;;;;;5052425;28;20246;-75
2024/01/14 12:23:01;;;;;;;6.33;2.57;;;5.00;99.90;;;;;;5053098;28;20466;-75
2024/01/14 12:25:27;;;;;;;3.40;2.67;;;5.00;99.90;;;;;;5050889;28;20807;-77
2024/01/14 12:27:53;;;;;;;2.93;2.10;;;5.00;99.90;;;;;;5053034;28;20435;-72
2024/01/14 12:30:30;;;;;;;5.00;2.40;;;5.20;99.90;;;;;;5053351;28;20766;-74
2024/01/14 12:32:57;;;;;;;8.40;2.27;;;5.10;99.90;;;;;;5057056;28;20533;-75
2024/01/14 12:35:34;;;;;;;4.30;2.77;;;5.10;99.90;;;;;;5056231;28;20397;-75
2024/01/14 12:38:00;;;;;;;4.93;2.03;;;5.00;99.90;;;;;;5056187;28;20433;-71
2024/01/14 12:40:27;;;;;;;3.23;1.93;;;4.90;99.90;;;;;;5056997;28;20946;-71
2024/01/14 12:42:53;;;;;;;6.00;2.57;;;4.90;99.90;;;;;;5056854;28;20936;-76
2024/01/14 12:45:18;;;;;;;7.53;2.53;;;5.00;99.90;;;;;;5056014;28;20397;-77
2024/01/14 12:47:54;;;;;;;3.73;2.23;;;4.90;99.90;;;;;;5056778;28;20200;-76
2024/01/14 12:50:19;;;;;;;3.27;2.57;;;5.00;99.90;;;;;;5055819;28;20473;-77
2024/01/14 12:52:45;;;;;;;5.43;2.23;;;5.10;99.90;;;;;;5055392;28;20445;-76
2024/01/14 12:55:20;;;;;;;4.60;1.97;;;5.00;99.90;;;;;;5053784;28;20699;-78